< < Back
Terminal Aerodrome Forecast


Current Version              Previous Versions:   1  2  3  4  5  6  7  8  9  

Terminal Aerodrome Forecast

962
FTUS42 KTAE 212300
TAFABY
TAF
KABY 212320Z 2200/2224 30003KT P6SM SKC
     FM220200 00000KT P6SM SKC
     FM221500 01008KT P6SM SKC=

Latest METAR

808
SAUS70 KWBC 222100 RRD
MTRABY
METAR KABY 222053Z 04007KT 10SM CLR 23/06 A3004 RMK AO2 SLP171 T02330061
56007 $


USA.gov is the U.S. government's official web portal to all federal, state and local government web resources and services.